AirNav   Air Wisconsin pilot careers
 
 303 users online  

5J5 Holly Hill Airport
Holly Hill, South Carolina, USA

GOING TO HOLLY HILL?


FAA INFORMATION EFFECTIVE 06 DECEMBER 2018

Location

FAA Identifier: 5J5
Lat/Long: 33-18-01.5000N / 080-23-39.6000W
33-18.025000N / 080-23.660000W
33.3004167 / -80.3943333
(estimated)
Elevation: 96 ft. / 29 m (estimated)
Variation: 05W (1985)
From city: 2 miles SE of HOLLY HILL, SC
Time zone: UTC -5 (UTC -4 during Daylight Saving Time)
Zip code: 29059

Airport Operations

Airport use: Open to the public
Control tower: no
ARTCC: JACKSONVILLE CENTER
FSS: ANDERSON FLIGHT SERVICE STATION
NOTAMs facility: AND (NOTAM-D service available)
Attendance: UNATNDD
Wind indicator: yes
Segmented circle: no

Airport Communications

CTAF: 122.9
WX AWOS-3 at DYB (15 nm S): 119.575 (843-821-8403)
WX AWOS-3 at MKS (19 nm E): 119.175 (843-761-1486)
WX AWOS-3 at MNI (20 nm NE): 120.175 (803-478-6060)

Nearby radio navigation aids

VOR radial/distance  VOR name  Freq  Var
VANr171/10.8VANCE VORTAC110.4006W
CHSr329/30.2CHARLESTON VORTAC113.5005W

 
NDB name  Hdg/Dist  Freq  Var  ID
DORCHESTER COUNTY345/15.536507WDYB -.. -.-- -...
MANNING215/19.738106WMNI -- -. ..

Airport Services

Parking: tiedowns
Airframe service: NONE
Powerplant service: NONE
Bottled oxygen: NONE
Bulk oxygen: NONE

Runway Information

Runway 4/22

Dimensions: 2900 x 150 ft. / 884 x 46 m
Surface: turf, in good condition
RUNWAY 4  RUNWAY 22
Latitude: 33-17.849478N33-18.200223N
Longitude: 080-23.853050W080-23.465788W
Elevation: 94.0 ft.95.0 ft.
Traffic pattern: leftleft
Runway heading: 048 magnetic, 043 true228 magnetic, 223 true
Obstructions: 66 ft. tree, 541 ft. from runway, 101 ft. right of centerline, 8:1 slope to clear
ROAD AT END OF RUNWAY 4
79 ft. tree, 760 ft. from runway, 188 ft. right of centerline, 9:1 slope to clear

Airport Ownership and Management from official FAA records

Ownership: Publicly-owned
Owner: TOWN OF HOLLY HILL
PO BOX 1108
HOLLY HILL, SC 29059
Phone 803-496-3330
Manager: LAMAR DAY
8423 OLD STATE ROAD SUITE 1
HOLLY HILL, SC 29059
Phone (803) 378-5239

Airport Operational Statistics

Aircraft based on the field: 16
Single engine airplanes: 15
Ultralights: 1
    
Aircraft operations: avg 63/week *
76% local general aviation
24% transient general aviation
* for 12-month period ending 27 September 2017

Additional Remarks

FOR CD CTC CHARLESTON APCH AT 843-414-2832.

Instrument Procedures

There are no published instrument procedures at 5J5.

Some nearby airports with instrument procedures:

6J2 - St George Airport (9 nm SW)
KDYB - Summerville Airport (15 nm S)
KMKS - Berkeley County Airport (19 nm E)
KMNI - Santee Cooper Regional Airport (20 nm NE)
KOGB - Orangeburg Municipal Airport (25 nm W)
 
Loc | Ops | Rwys | IFR | FBO | Links
Com | Nav | Svcs | Stats | Notes


 
Area around 5J5 (Holly Hill Airport)
 
Road maps at: MapQuest Bing Google
 
Aerial photo
WARNING: Photo may not be current or correct
Aerial photo of 5J5 (Holly Hill Airport)
Do you have a better or more recent aerial photo of Holly Hill Airport that you would like to share? If so, please send us your photo.

 
Sectional chart

 
Airport distance calculator
Flying to Holly Hill Airport? Find the distance to fly.

From to 5J5

Sunrise and sunset
Times for 11-Dec-2018
 Local
(UTC-5)
 Zulu
(UTC)
Morning civil twilight06:4911:49
Sunrise07:1612:16
Sunset17:1422:14
Evening civil twilight17:4122:41

Current date and time
Zulu (UTC)  11-Dec-2018 10:06:46
Local (UTC-5)  11-Dec-2018 05:06:46
 
METAR
KDYB 
15nm S 
110955Z AUTO 00000KT 10SM OVC029 02/02 A3017 RMK AO1
KMKS 
19nm E 
110955Z AUTO 35005KT 7SM SCT016 SCT024 OVC030 04/03 A3015 RMK AO2
KMNI 
20nm NE 
110955Z AUTO 35005KT 10SM SCT050 OVC080 02/01 A3016 RMK AO2
KOGB 
25nm NW 
110953Z AUTO 32003KT 10SM OVC055 03/01 A3017 RMK AO2 SLP218 T00280006
KRBW 
26nm SW 
110935Z AUTO 00000KT 10SM OVC032 03/02 A3017 RMK AO2
KCHS 
30nm SE 
110956Z 34009KT 10SM BKN008 OVC016 02/02 A3015 RMK AO2 DZB15E41 SLP209 P0000 T00170017 $
TAF
KOGB 
25nm NW 
110530Z 1106/1206 01005KT 6SM -DZ SCT010 OVC050 TEMPO 1106/1108 BKN011 FM111100 35005KT P6SM SCT007 OVC070 FM111500 30007KT P6SM SCT250 FM120000 VRB03KT P6SM SKC
KCHS 
30nm SE 
110554Z 1106/1206 35005KT 6SM -DZ BR OVC008 TEMPO 1106/1109 4SM -DZ BR OVC006 FM110900 34005KT 6SM -RAPL BR OVC008 FM111100 33005KT P6SM SCT008 BKN015 TEMPO 1111/1114 SCT015 BKN035 FM111400 31007KT P6SM SKC
NOTAMs
Click for the latest NOTAMs
NOTAMs are issued by the DoD/FAA and will open in a separate window not controlled by AirNav.

 

 
 

Would you like to see your business listed on this page?

 If your business provides an interesting product or service to pilots, flight crews, aircraft, or users of the Holly Hill Airport, you should consider listing it here.  To start the listing process, click on the button below
 
Add a business
 

Other Pages about Holly Hill Airport

Update a link
 
Copyright © AirNav, LLC. All rights reserved. Privacy Policy  Contact